Portada
METAR-TAF:

METAR-TAF

Aeroports :

Logronyo, Espanya

latitud: 42-27N, longitud: 002-20W, altitud: 353 m

Observació

L'informe es va fer fa 32 minuts, a les 14:30 UTC
Vent 5 kt del Est/Nord-Est, variant entre Nord/Nord-Est i Est/Sud-Est
Temperatura 18°C
Humitat 64%
Pressió 1020 hPa
Visibilitat 10 km o més
Escasses núvols a una alçada de 6000 ft

METAR: LELO 191430Z 07005KT 030V120 9999 FEW060 18/11 Q1020

Hora: 17:02 (15:02 UTC)

Pronòstic

L'informe es va fer fa 1 hora i 2 minuts, a les 14:00 UTC
Pronòstic vàlid del 19 a les 15 UTC al 19 a les 24 UTC
Vent 8 kt del Est
Visibilitat 10 km o més
sense núvols per sota de 1500 mi sense presència de cumulonimbus.
Probabilitat 30% :
Temporalment
l' 19 a les 15 UTC al 19 a les 18 UTC
Vent 15 kt del Est amb ràfegues de 25 kt

TAF: LELO 191400Z 1915/1924 09008KT CAVOK PROB30 TEMPO 1915/1918 09015G25KT

Observacions i pronòstics meteorològics de més de 4000 aeroports (METAR i TAF).

Les estacions disponibles són els punts grocs i vermells al mapa.

Posi el ratolí al punt desitjat per veure el nom de l'estació.

Feu clic per veure les observacions i els pronòstics meteorològics.

Per canviar el mapa: feu clic els botons verds amb una creu de color negre per apropar; al botó verd amb un guió per allunyar la imatge; o en les fletxes verdes per a mapes adjacents.


METAR-TAF: